createdAt,value
2023-03-02T00:00:42.239Z,13.73
2023-03-02T00:03:11.262Z,13.20
2023-03-02T00:05:41.958Z,13.77
2023-03-02T00:08:10.674Z,11.23
2023-03-02T00:10:38.888Z,12.43
2023-03-02T00:13:06.743Z,12.98
2023-03-02T00:15:34.468Z,13.75
2023-03-02T00:18:02.192Z,13.82
2023-03-02T00:20:29.969Z,13.48
2023-03-02T00:22:59.820Z,13.43
2023-03-02T00:25:28.607Z,14.30
2023-03-02T00:27:56.537Z,13.15
2023-03-02T00:30:24.347Z,13.48
2023-03-02T00:32:52.121Z,14.15
2023-03-02T00:35:19.914Z,11.95
2023-03-02T00:37:48.134Z,12.80
2023-03-02T00:40:17.428Z,13.25
2023-03-02T00:42:45.289Z,13.32
2023-03-02T00:45:13.513Z,14.75
2023-03-02T00:47:42.242Z,15.27
2023-03-02T00:50:11.290Z,15.38
2023-03-02T00:52:38.997Z,14.57
2023-03-02T00:55:07.793Z,14.65
2023-03-02T00:57:36.870Z,13.65
2023-03-02T01:00:06.535Z,13.70
2023-03-02T01:02:43.902Z,15.13
2023-03-02T01:05:14.342Z,14.75
2023-03-02T01:07:42.126Z,14.93
2023-03-02T01:10:10.963Z,14.75
2023-03-02T01:12:40.281Z,13.63
2023-03-02T01:15:10.207Z,13.57
2023-03-02T01:17:39.681Z,13.80
2023-03-02T01:20:09.190Z,15.10
2023-03-02T01:22:36.872Z,14.93
2023-03-02T01:25:05.082Z,15.52
2023-03-02T01:27:32.966Z,15.57
2023-03-02T01:30:01.958Z,15.25
2023-03-02T01:32:31.977Z,14.63
2023-03-02T01:34:59.741Z,13.85
2023-03-02T01:37:27.419Z,16.92
2023-03-02T01:39:55.178Z,17.20
2023-03-02T01:42:22.957Z,14.23
2023-03-02T01:44:54.036Z,14.57
2023-03-02T01:47:26.117Z,15.82
2023-03-02T01:50:05.917Z,13.82
2023-03-02T01:52:39.367Z,15.27
2023-03-02T01:55:13.373Z,14.82
2023-03-02T01:57:44.339Z,15.35
2023-03-02T02:00:15.889Z,16.83
2023-03-02T02:02:45.146Z,15.05
2023-03-02T02:05:16.994Z,15.07
2023-03-02T02:07:45.330Z,15.63
2023-03-02T02:10:13.632Z,15.90
2023-03-02T02:12:42.418Z,16.05
2023-03-02T02:15:10.944Z,15.57
2023-03-02T02:17:38.660Z,14.75
2023-03-02T02:20:19.401Z,15.77
2023-03-02T02:22:56.619Z,15.05
2023-03-02T02:25:40.735Z,17.15
2023-03-02T02:28:16.021Z,16.55
2023-03-02T02:30:44.978Z,16.92
2023-03-02T02:33:16.122Z,17.23
2023-03-02T02:35:46.764Z,14.43
2023-03-02T02:38:18.268Z,15.18
2023-03-02T02:40:49.987Z,16.33
2023-03-02T02:43:23.129Z,16.67
2023-03-02T02:45:54.447Z,15.90
2023-03-02T02:48:25.269Z,17.02
2023-03-02T02:50:59.995Z,14.13
2023-03-02T02:53:33.873Z,15.90
2023-03-02T02:56:02.995Z,15.80
2023-03-02T02:58:38.793Z,15.57
2023-03-02T03:01:07.345Z,15.13
2023-03-02T03:03:39.124Z,17.73
2023-03-02T03:06:17.475Z,16.55
2023-03-02T03:08:56.848Z,16.83
2023-03-02T03:11:32.264Z,17.10
2023-03-02T03:14:07.433Z,15.63
2023-03-02T03:16:37.620Z,16.77
2023-03-02T03:19:10.596Z,17.50
2023-03-02T03:21:38.454Z,17.17
2023-03-02T03:24:07.543Z,15.13
2023-03-02T03:26:36.057Z,14.73
2023-03-02T03:29:06.151Z,16.88
2023-03-02T03:31:34.584Z,16.85
2023-03-02T03:34:06.405Z,16.58
2023-03-02T03:36:37.747Z,15.70
2023-03-02T03:39:06.893Z,16.98
2023-03-02T03:41:34.924Z,15.73
2023-03-02T03:44:02.925Z,15.63
2023-03-02T03:46:35.341Z,16.50
2023-03-02T03:49:04.603Z,15.82
2023-03-02T03:51:35.023Z,16.73
2023-03-02T03:54:05.566Z,16.52
2023-03-02T03:56:40.291Z,16.63
2023-03-02T03:59:10.763Z,15.90
2023-03-02T04:01:46.257Z,17.05
2023-03-02T04:04:16.580Z,17.60
2023-03-02T04:06:45.168Z,15.57
2023-03-02T04:09:15.355Z,16.45
2023-03-02T04:11:44.628Z,16.80
2023-03-02T04:14:13.430Z,16.08
2023-03-02T04:16:43.931Z,16.35
2023-03-02T04:19:13.024Z,16.95
2023-03-02T04:21:45.808Z,15.60
2023-03-02T04:24:16.315Z,18.00
2023-03-02T04:26:45.754Z,14.93
2023-03-02T04:29:14.218Z,16.85
2023-03-02T04:31:43.882Z,18.00
2023-03-02T04:34:12.907Z,20.05
2023-03-02T04:36:43.928Z,17.13
2023-03-02T04:39:16.368Z,19.88
2023-03-02T04:41:48.069Z,18.02
2023-03-02T04:44:17.132Z,17.33
2023-03-02T04:46:47.042Z,17.05
2023-03-02T04:49:15.613Z,18.52
2023-03-02T04:51:45.246Z,16.85
2023-03-02T04:54:17.234Z,18.10
2023-03-02T04:56:48.233Z,16.80
2023-03-02T04:59:16.294Z,16.13
2023-03-02T05:01:44.720Z,17.17
2023-03-02T05:04:14.610Z,17.40
2023-03-02T05:06:42.422Z,16.55
2023-03-02T05:09:10.457Z,16.17
2023-03-02T05:11:38.663Z,18.08
2023-03-02T05:14:10.516Z,18.10
2023-03-02T05:16:40.985Z,17.85
2023-03-02T05:19:11.401Z,16.98
2023-03-02T05:21:40.541Z,16.40
2023-03-02T05:24:08.831Z,15.70
2023-03-02T05:26:36.659Z,18.25
2023-03-02T05:29:05.530Z,17.48
2023-03-02T05:31:36.148Z,17.35
2023-03-02T05:34:06.072Z,16.08
2023-03-02T05:36:34.610Z,16.48
2023-03-02T05:39:03.976Z,16.98
2023-03-02T05:41:31.787Z,16.58
2023-03-02T05:43:59.569Z,16.40
2023-03-02T05:46:27.747Z,18.27
2023-03-02T05:48:55.483Z,16.38
2023-03-02T05:51:23.222Z,17.27
2023-03-02T05:53:50.991Z,16.10
2023-03-02T05:56:21.199Z,15.80
2023-03-02T05:58:49.103Z,16.95
2023-03-02T06:01:16.794Z,16.70
2023-03-02T06:03:44.800Z,15.23
2023-03-02T06:06:13.814Z,17.95
2023-03-02T06:08:42.186Z,19.30
2023-03-02T06:11:10.565Z,16.48
2023-03-02T06:13:40.137Z,20.33
2023-03-02T06:16:08.575Z,17.42
2023-03-02T06:18:36.877Z,18.95
2023-03-02T06:21:05.410Z,19.15
2023-03-02T06:23:34.361Z,19.75
2023-03-02T06:26:09.327Z,17.52
2023-03-02T06:28:51.439Z,16.58
2023-03-02T06:31:20.964Z,19.08
2023-03-02T06:33:48.903Z,19.95
2023-03-02T06:36:17.019Z,19.10
2023-03-02T06:38:45.703Z,20.80
2023-03-02T06:41:14.587Z,19.77
2023-03-02T06:43:43.839Z,19.00
2023-03-02T06:46:11.664Z,16.65
2023-03-02T06:48:39.441Z,22.10
2023-03-02T06:51:08.101Z,19.90
2023-03-02T06:53:36.705Z,20.33
2023-03-02T06:56:07.424Z,18.80
2023-03-02T06:58:38.005Z,19.10
2023-03-02T07:01:08.748Z,18.02
2023-03-02T07:03:37.114Z,16.98
2023-03-02T07:06:05.169Z,18.60
2023-03-02T07:08:32.844Z,17.75
2023-03-02T07:11:00.775Z,18.60
2023-03-02T07:13:30.856Z,17.77
2023-03-02T07:15:58.581Z,20.73
2023-03-02T07:18:27.607Z,18.42
2023-03-02T07:20:55.291Z,17.00
2023-03-02T07:23:24.178Z,17.95
2023-03-02T07:25:51.858Z,18.10
2023-03-02T07:28:24.404Z,17.38
2023-03-02T07:30:52.776Z,17.92
2023-03-02T07:33:22.700Z,17.90
2023-03-02T07:35:51.755Z,18.52
2023-03-02T07:38:19.978Z,17.00
2023-03-02T07:40:47.659Z,16.50
2023-03-02T07:43:17.531Z,16.30
2023-03-02T07:45:46.254Z,16.35
2023-03-02T07:48:13.948Z,16.63
2023-03-02T07:50:42.951Z,15.75
2023-03-02T07:53:13.013Z,16.95
2023-03-02T07:55:41.763Z,17.23
2023-03-02T07:58:09.468Z,16.27
2023-03-02T08:00:41.257Z,16.85
2023-03-02T08:03:10.468Z,17.75
2023-03-02T08:05:43.080Z,17.20
2023-03-02T08:08:15.690Z,15.60
2023-03-02T08:10:47.511Z,18.00
2023-03-02T08:13:16.479Z,17.92
2023-03-02T08:15:44.202Z,18.30
2023-03-02T08:18:13.472Z,16.88
2023-03-02T08:20:41.220Z,20.00
2023-03-02T08:23:12.891Z,17.48
2023-03-02T08:25:44.215Z,15.80
2023-03-02T08:28:11.982Z,18.25
2023-03-02T08:30:39.927Z,17.80
2023-03-02T08:33:07.670Z,18.73
2023-03-02T08:35:38.678Z,16.05
2023-03-02T08:38:08.836Z,16.30
2023-03-02T08:40:36.857Z,18.52
2023-03-02T08:43:08.050Z,18.65
2023-03-02T08:45:35.890Z,14.90
2023-03-02T08:48:03.673Z,16.90
2023-03-02T08:50:31.450Z,17.48
2023-03-02T08:52:59.188Z,17.60
2023-03-02T08:55:26.909Z,19.77
2023-03-02T08:57:58.492Z,17.17
2023-03-02T09:00:31.816Z,18.63
2023-03-02T09:03:02.096Z,18.00
2023-03-02T09:05:29.847Z,18.30
2023-03-02T09:07:58.757Z,15.93
2023-03-02T09:10:28.511Z,17.02
2023-03-02T09:12:59.709Z,17.65
2023-03-02T09:15:29.261Z,17.60
2023-03-02T09:17:58.333Z,18.00
2023-03-02T09:20:26.192Z,17.45
2023-03-02T09:22:53.971Z,17.17
2023-03-02T09:25:21.899Z,17.30
2023-03-02T09:27:53.654Z,17.55
2023-03-02T09:30:21.477Z,16.08
2023-03-02T09:32:51.840Z,15.55
2023-03-02T09:35:19.777Z,18.02
2023-03-02T09:37:47.505Z,16.92
2023-03-02T09:40:24.089Z,16.10
2023-03-02T09:43:07.753Z,15.95
2023-03-02T09:45:58.222Z,16.00
2023-03-02T09:48:38.300Z,14.52
2023-03-02T09:51:17.232Z,16.60
2023-03-02T09:53:52.396Z,17.40
2023-03-02T09:56:22.980Z,16.27
2023-03-02T09:58:57.872Z,16.20
2023-03-02T10:01:35.422Z,16.70
2023-03-02T10:04:16.917Z,18.33
2023-03-02T10:06:45.163Z,17.73
2023-03-02T10:09:14.097Z,16.23
2023-03-02T10:11:59.209Z,15.95
2023-03-02T10:14:34.174Z,15.60
2023-03-02T10:17:17.632Z,16.25
2023-03-02T10:19:52.831Z,16.95
2023-03-02T10:22:27.932Z,17.05
2023-03-02T10:25:02.686Z,15.18
2023-03-02T10:27:39.237Z,15.05
2023-03-02T10:30:16.549Z,15.07
2023-03-02T10:32:47.266Z,15.15
2023-03-02T10:35:19.196Z,16.35
2023-03-02T10:37:46.965Z,15.38
2023-03-02T10:40:29.795Z,14.40
2023-03-02T10:43:04.186Z,17.20
2023-03-02T10:45:33.748Z,17.40
2023-03-02T10:48:04.529Z,15.73
2023-03-02T10:50:34.675Z,16.25
2023-03-02T10:53:05.202Z,16.25
2023-03-02T10:55:35.428Z,14.25
2023-03-02T10:58:05.905Z,16.50
2023-03-02T11:00:36.688Z,16.23
2023-03-02T11:03:07.236Z,15.73
2023-03-02T11:05:41.930Z,15.57
2023-03-02T11:08:12.483Z,15.57
2023-03-02T11:10:51.247Z,17.77
2023-03-02T11:13:23.751Z,15.45
2023-03-02T11:15:54.567Z,16.83
2023-03-02T11:18:26.970Z,16.92
2023-03-02T11:21:01.022Z,16.02
2023-03-02T11:23:37.384Z,16.05
2023-03-02T11:26:10.179Z,14.80
2023-03-02T11:28:44.940Z,16.00
2023-03-02T11:31:18.329Z,16.52
2023-03-02T11:34:04.719Z,16.17
2023-03-02T11:36:46.362Z,15.50
2023-03-02T11:39:20.084Z,14.55
2023-03-02T11:41:49.807Z,15.10
2023-03-02T11:44:20.525Z,15.53
2023-03-02T11:46:56.633Z,15.50
2023-03-02T11:49:31.794Z,14.97
2023-03-02T11:52:02.092Z,13.43
2023-03-02T11:54:37.516Z,14.27
2023-03-02T11:57:05.573Z,15.43
2023-03-02T11:59:35.434Z,15.50
2023-03-02T12:02:03.735Z,15.10
2023-03-02T12:04:34.592Z,15.87
2023-03-02T12:07:19.134Z,16.63
2023-03-02T12:10:02.040Z,14.87
2023-03-02T12:12:40.792Z,14.73
2023-03-02T12:15:39.336Z,14.75
2023-03-02T12:18:31.022Z,17.35
2023-03-02T12:21:02.508Z,14.82
2023-03-02T12:23:33.090Z,14.95
2023-03-02T12:26:05.912Z,14.75
2023-03-02T12:28:36.872Z,16.10
2023-03-02T12:31:08.741Z,13.75
2023-03-02T12:33:44.173Z,14.25
2023-03-02T12:36:15.118Z,14.70
2023-03-02T12:38:47.913Z,16.55
2023-03-02T12:41:33.004Z,17.42
2023-03-02T12:44:14.769Z,17.77
2023-03-02T12:46:46.404Z,14.77
2023-03-02T12:49:27.052Z,13.95
2023-03-02T12:51:58.555Z,14.35
2023-03-02T12:54:29.377Z,15.93
2023-03-02T12:57:15.335Z,15.70
2023-03-02T12:59:44.179Z,14.65
2023-03-02T13:02:19.053Z,14.32
2023-03-02T13:04:54.026Z,15.77
2023-03-02T13:07:26.438Z,13.77
2023-03-02T13:09:58.045Z,15.15
2023-03-02T13:12:28.531Z,14.10
2023-03-02T13:15:00.759Z,15.00
2023-03-02T13:17:31.194Z,14.23
2023-03-02T13:20:06.284Z,16.55
2023-03-02T13:22:36.607Z,13.55
2023-03-02T13:25:09.295Z,15.13
2023-03-02T13:27:39.463Z,15.07
2023-03-02T13:30:11.844Z,12.75
2023-03-02T13:32:45.707Z,15.95
2023-03-02T13:35:18.793Z,17.15
2023-03-02T13:37:47.844Z,15.05
2023-03-02T13:40:35.248Z,14.95
2023-03-02T13:43:09.690Z,16.20
2023-03-02T13:45:38.140Z,15.10
2023-03-02T13:48:15.622Z,14.75
2023-03-02T13:50:52.935Z,13.65
2023-03-02T13:53:22.164Z,14.10
2023-03-02T13:55:56.211Z,16.02
2023-03-02T13:58:25.700Z,14.23
2023-03-02T14:00:53.855Z,14.00
2023-03-02T14:03:24.826Z,13.32
2023-03-02T14:05:53.350Z,14.98
2023-03-02T14:08:21.163Z,13.52
2023-03-02T14:10:51.129Z,18.52
2023-03-02T14:13:23.313Z,14.60
2023-03-02T14:15:54.039Z,14.25
2023-03-02T14:18:30.524Z,16.15
2023-03-02T14:20:58.829Z,14.15
2023-03-02T14:23:28.500Z,15.07
2023-03-02T14:25:57.434Z,13.25
2023-03-02T14:28:30.958Z,13.45
2023-03-02T17:30:48.566Z,16.57
2023-03-02T17:33:16.684Z,18.15
2023-03-02T17:35:46.005Z,15.15
2023-03-02T17:38:14.305Z,15.25
2023-03-02T17:40:42.234Z,16.95
2023-03-02T17:43:11.335Z,14.43
2023-03-02T17:45:39.476Z,15.55
2023-03-02T17:48:08.634Z,14.27
2023-03-02T17:50:37.294Z,14.10
2023-03-02T17:53:05.003Z,13.40
2023-03-02T17:55:32.715Z,15.27
2023-03-02T17:58:00.517Z,16.88
2023-03-02T18:00:28.353Z,15.00
2023-03-02T18:02:56.091Z,15.10
2023-03-02T18:05:25.642Z,16.20
2023-03-02T18:07:54.454Z,16.67
2023-03-02T18:10:22.221Z,14.82
2023-03-02T18:12:52.324Z,13.95
2023-03-02T18:15:24.397Z,18.25
2023-03-02T18:17:54.444Z,16.45
2023-03-02T18:20:24.109Z,20.20
2023-03-02T18:22:53.259Z,17.27
2023-03-02T18:25:27.937Z,15.93
2023-03-02T18:27:55.707Z,15.90
2023-03-02T18:30:24.457Z,18.10
2023-03-02T18:32:52.421Z,17.27
2023-03-02T18:35:21.194Z,19.33
2023-03-02T18:37:49.273Z,16.77
2023-03-02T18:40:19.988Z,18.45
2023-03-02T18:42:48.086Z,17.75
2023-03-02T18:45:23.360Z,19.48
2023-03-02T18:47:52.137Z,17.63
2023-03-02T18:50:21.180Z,18.90
2023-03-02T18:52:54.009Z,17.60
2023-03-02T18:55:24.720Z,18.95
2023-03-02T18:57:53.741Z,20.65
2023-03-02T19:00:27.367Z,19.50
2023-03-02T19:02:56.467Z,19.35
2023-03-02T19:05:26.905Z,17.67
2023-03-02T19:07:54.990Z,18.02
2023-03-02T19:10:24.285Z,18.95
2023-03-02T19:12:51.988Z,18.33
2023-03-02T19:15:20.004Z,19.52
2023-03-02T19:17:51.589Z,17.40
2023-03-02T19:20:20.936Z,19.02
2023-03-02T19:22:48.663Z,17.23
2023-03-02T19:25:16.385Z,18.35
2023-03-02T19:27:45.473Z,19.23
2023-03-02T19:30:17.466Z,21.23
2023-03-02T19:32:45.339Z,19.92
2023-03-02T19:35:17.823Z,17.40
2023-03-02T19:37:46.132Z,18.13
2023-03-02T19:40:17.201Z,19.90
2023-03-02T19:42:47.312Z,19.75
2023-03-02T19:45:18.260Z,18.23
2023-03-02T19:47:46.988Z,17.77
2023-03-02T19:50:15.503Z,19.40
2023-03-02T19:52:43.330Z,20.83
2023-03-02T19:55:12.718Z,19.90
2023-03-02T19:57:41.508Z,21.23
2023-03-02T20:00:17.576Z,18.88
2023-03-02T20:02:47.672Z,21.45
2023-03-02T20:05:15.800Z,18.63
2023-03-02T20:07:44.077Z,19.48
2023-03-02T20:10:18.005Z,21.45
2023-03-02T20:12:45.742Z,19.80
2023-03-02T20:15:14.885Z,18.17
2023-03-02T20:17:45.266Z,21.13
2023-03-02T20:20:14.935Z,19.75
2023-03-02T20:22:42.680Z,18.60
2023-03-02T20:25:14.357Z,19.45
2023-03-02T20:27:42.350Z,20.25
2023-03-02T20:30:18.709Z,21.77
2023-03-02T20:32:46.512Z,22.80
2023-03-02T20:35:14.274Z,19.80
2023-03-02T20:37:42.433Z,21.88
2023-03-02T20:40:11.836Z,20.45
2023-03-02T20:42:40.540Z,21.17
2023-03-02T20:45:09.333Z,23.15
2023-03-02T20:47:39.013Z,19.63
2023-03-02T20:50:08.300Z,20.77
2023-03-02T20:52:36.949Z,21.05
2023-03-02T20:55:06.262Z,20.75
2023-03-02T20:57:34.688Z,18.80
2023-03-02T21:00:03.791Z,21.08
2023-03-02T21:02:31.730Z,21.50
2023-03-02T21:05:00.892Z,21.15
2023-03-02T21:07:28.861Z,22.42
2023-03-02T21:09:56.658Z,22.05
2023-03-02T21:12:24.581Z,22.27
2023-03-02T21:14:52.566Z,23.80
2023-03-02T21:17:20.707Z,20.42
2023-03-02T21:19:48.440Z,19.38
2023-03-02T21:22:19.059Z,18.75
2023-03-02T21:24:47.000Z,20.85
2023-03-02T21:27:14.782Z,19.75
2023-03-02T21:29:42.492Z,19.17
2023-03-02T21:32:10.282Z,18.70
2023-03-02T21:34:38.578Z,19.75
2023-03-02T21:37:06.716Z,18.65
2023-03-02T21:39:35.765Z,19.30
2023-03-02T21:42:03.601Z,17.27
2023-03-02T21:44:31.296Z,18.08
2023-03-02T21:46:59.168Z,19.13
2023-03-02T21:49:26.932Z,18.35
2023-03-02T21:51:54.737Z,17.13
2023-03-02T21:54:22.512Z,19.27
2023-03-02T21:56:51.531Z,18.73
2023-03-02T21:59:19.270Z,18.65
2023-03-02T22:01:47.105Z,18.00
2023-03-02T22:04:14.861Z,18.52
2023-03-02T22:06:42.841Z,18.20
2023-03-02T22:09:12.133Z,20.23
2023-03-02T22:11:40.056Z,16.92
2023-03-02T22:14:14.143Z,17.20
2023-03-02T22:16:44.932Z,21.30
2023-03-02T22:19:24.717Z,17.95
2023-03-02T22:21:53.961Z,20.83
2023-03-02T22:24:24.775Z,18.52
2023-03-02T22:26:59.022Z,19.48
2023-03-02T22:29:30.561Z,18.00
2023-03-02T22:32:07.305Z,18.27
2023-03-02T22:34:36.727Z,18.17
2023-03-02T22:37:11.610Z,19.50
2023-03-02T22:39:42.054Z,15.77
2023-03-02T22:42:13.918Z,16.55
2023-03-02T22:44:43.355Z,19.52
2023-03-02T22:47:16.375Z,20.42
2023-03-02T22:49:44.476Z,18.77
2023-03-02T22:52:14.703Z,19.48
2023-03-02T22:54:42.563Z,17.70
2023-03-02T22:57:26.170Z,19.40
2023-03-02T23:00:04.420Z,19.70
2023-03-02T23:02:34.645Z,19.85
2023-03-02T23:05:02.372Z,17.52
2023-03-02T23:07:30.080Z,18.45
2023-03-02T23:09:57.743Z,19.75
2023-03-02T23:12:28.241Z,18.65
2023-03-02T23:14:58.690Z,18.15
2023-03-02T23:17:32.022Z,17.38
2023-03-02T23:19:59.814Z,20.52
2023-03-02T23:22:29.664Z,18.02
2023-03-02T23:24:57.667Z,18.70
2023-03-02T23:27:25.372Z,17.92
2023-03-02T23:29:53.348Z,16.88
2023-03-02T23:32:22.527Z,18.00
2023-03-02T23:34:50.291Z,18.38
2023-03-02T23:37:18.076Z,18.80
2023-03-02T23:39:46.254Z,18.20
2023-03-02T23:42:14.000Z,18.00
2023-03-02T23:44:41.662Z,17.85
2023-03-02T23:47:09.368Z,18.30
2023-03-02T23:49:38.504Z,19.45
2023-03-02T23:52:06.497Z,18.20
2023-03-02T23:54:34.165Z,14.82
2023-03-02T23:57:01.928Z,17.45
2023-03-02T23:59:29.640Z,16.48
